sensor_id;sensor_type;location;lat;lon;timestamp;temperature;humidity
14170;DHT22;63889;50.596;8.690;2023-04-24T00:00:16;12.40;99.90
14170;DHT22;63889;50.596;8.690;2023-04-24T00:02:43;12.30;99.90
14170;DHT22;63889;50.596;8.690;2023-04-24T00:05:13;12.20;99.90
14170;DHT22;63889;50.596;8.690;2023-04-24T00:07:43;12.20;99.90
14170;DHT22;63889;50.596;8.690;2023-04-24T00:10:09;12.10;99.90
14170;DHT22;63889;50.596;8.690;2023-04-24T00:12:35;12.10;99.90
14170;DHT22;63889;50.596;8.690;2023-04-24T00:15:01;12.10;99.90
14170;DHT22;63889;50.596;8.690;2023-04-24T00:17:27;12.10;99.90
14170;DHT22;63889;50.596;8.690;2023-04-24T00:19:52;12.10;99.90
14170;DHT22;63889;50.596;8.690;2023-04-24T00:22:24;12.10;99.90
14170;DHT22;63889;50.596;8.690;2023-04-24T00:24:50;12.00;99.90
14170;DHT22;63889;50.596;8.690;2023-04-24T00:27:15;11.90;99.90
14170;DHT22;63889;50.596;8.690;2023-04-24T00:29:41;11.90;99.90
14170;DHT22;63889;50.596;8.690;2023-04-24T00:32:06;11.80;99.90
14170;DHT22;63889;50.596;8.690;2023-04-24T00:34:32;11.80;99.90
14170;DHT22;63889;50.596;8.690;2023-04-24T00:36:58;11.80;99.90
14170;DHT22;63889;50.596;8.690;2023-04-24T00:39:24;11.90;99.90
14170;DHT22;63889;50.596;8.690;2023-04-24T00:41:50;12.10;99.90
14170;DHT22;63889;50.596;8.690;2023-04-24T00:44:16;12.10;99.90
14170;DHT22;63889;50.596;8.690;2023-04-24T00:46:42;12.10;99.90
14170;DHT22;63889;50.596;8.690;2023-04-24T00:49:07;12.20;99.90
14170;DHT22;63889;50.596;8.690;2023-04-24T00:51:33;12.10;99.90
14170;DHT22;63889;50.596;8.690;2023-04-24T00:54:00;12.00;99.90
14170;DHT22;63889;50.596;8.690;2023-04-24T00:56:26;12.00;99.90
14170;DHT22;63889;50.596;8.690;2023-04-24T00:58:52;12.00;99.90
14170;DHT22;63889;50.596;8.690;2023-04-24T01:01:21;12.10;99.90
14170;DHT22;63889;50.596;8.690;2023-04-24T01:03:49;12.10;99.90
14170;DHT22;63889;50.596;8.690;2023-04-24T01:06:16;12.10;99.90
14170;DHT22;63889;50.596;8.690;2023-04-24T01:08:42;12.00;99.90
14170;DHT22;63889;50.596;8.690;2023-04-24T01:11:08;12.00;99.90
14170;DHT22;63889;50.596;8.690;2023-04-24T01:13:34;11.90;99.90
14170;DHT22;63889;50.596;8.690;2023-04-24T01:16:00;11.80;99.90
14170;DHT22;63889;50.596;8.690;2023-04-24T01:18:26;11.70;99.90
14170;DHT22;63889;50.596;8.690;2023-04-24T01:20:56;11.80;99.90
14170;DHT22;63889;50.596;8.690;2023-04-24T01:23:22;11.80;99.90
14170;DHT22;63889;50.596;8.690;2023-04-24T01:25:49;11.90;99.90
14170;DHT22;63889;50.596;8.690;2023-04-24T01:28:15;11.90;99.90
14170;DHT22;63889;50.596;8.690;2023-04-24T01:30:41;12.00;99.90
14170;DHT22;63889;50.596;8.690;2023-04-24T01:33:07;12.00;99.90
14170;DHT22;63889;50.596;8.690;2023-04-24T01:35:33;12.10;99.90
14170;DHT22;63889;50.596;8.690;2023-04-24T01:37:58;12.00;99.90
14170;DHT22;63889;50.596;8.690;2023-04-24T01:40:24;12.00;99.90
14170;DHT22;63889;50.596;8.690;2023-04-24T01:42:50;12.00;99.90
14170;DHT22;63889;50.596;8.690;2023-04-24T01:45:16;12.00;99.90
14170;DHT22;63889;50.596;8.690;2023-04-24T01:47:41;12.10;99.90
14170;DHT22;63889;50.596;8.690;2023-04-24T01:50:07;12.10;99.90
14170;DHT22;63889;50.596;8.690;2023-04-24T01:52:33;12.10;99.90
14170;DHT22;63889;50.596;8.690;2023-04-24T01:55:00;12.10;99.90
14170;DHT22;63889;50.596;8.690;2023-04-24T01:57:26;12.10;99.90
14170;DHT22;63889;50.596;8.690;2023-04-24T01:59:52;12.10;99.90
14170;DHT22;63889;50.596;8.690;2023-04-24T02:02:17;12.00;99.90
14170;DHT22;63889;50.596;8.690;2023-04-24T02:04:43;12.00;99.90
14170;DHT22;63889;50.596;8.690;2023-04-24T02:07:09;11.80;99.90
14170;DHT22;63889;50.596;8.690;2023-04-24T02:09:34;11.80;99.90
14170;DHT22;63889;50.596;8.690;2023-04-24T02:12:00;11.70;99.90
14170;DHT22;63889;50.596;8.690;2023-04-24T02:14:26;11.70;99.90
14170;DHT22;63889;50.596;8.690;2023-04-24T02:16:51;11.60;99.90
14170;DHT22;63889;50.596;8.690;2023-04-24T02:19:17;11.60;99.90
14170;DHT22;63889;50.596;8.690;2023-04-24T02:21:42;11.60;99.90
14170;DHT22;63889;50.596;8.690;2023-04-24T02:24:08;11.50;99.90
14170;DHT22;63889;50.596;8.690;2023-04-24T02:26:33;11.60;99.90
14170;DHT22;63889;50.596;8.690;2023-04-24T02:28:59;11.60;99.90
14170;DHT22;63889;50.596;8.690;2023-04-24T02:31:25;11.60;99.90
14170;DHT22;63889;50.596;8.690;2023-04-24T02:33:51;11.60;99.90
14170;DHT22;63889;50.596;8.690;2023-04-24T02:36:16;11.50;99.90
14170;DHT22;63889;50.596;8.690;2023-04-24T02:38:42;11.50;99.90
14170;DHT22;63889;50.596;8.690;2023-04-24T02:41:07;11.40;99.90
14170;DHT22;63889;50.596;8.690;2023-04-24T02:43:33;11.40;99.90
14170;DHT22;63889;50.596;8.690;2023-04-24T02:45:59;11.30;99.90
14170;DHT22;63889;50.596;8.690;2023-04-24T02:48:25;11.40;99.90
14170;DHT22;63889;50.596;8.690;2023-04-24T02:50:50;11.40;99.90
14170;DHT22;63889;50.596;8.690;2023-04-24T02:53:16;11.40;99.90
14170;DHT22;63889;50.596;8.690;2023-04-24T02:55:42;11.50;99.90
14170;DHT22;63889;50.596;8.690;2023-04-24T02:58:07;11.50;99.90
14170;DHT22;63889;50.596;8.690;2023-04-24T03:00:33;11.50;99.90
14170;DHT22;63889;50.596;8.690;2023-04-24T03:02:58;11.50;99.90
14170;DHT22;63889;50.596;8.690;2023-04-24T03:05:24;11.40;99.90
14170;DHT22;63889;50.596;8.690;2023-04-24T03:07:50;11.40;99.90
14170;DHT22;63889;50.596;8.690;2023-04-24T03:10:18;11.40;99.90
14170;DHT22;63889;50.596;8.690;2023-04-24T03:12:43;11.40;99.90
14170;DHT22;63889;50.596;8.690;2023-04-24T03:15:09;11.30;99.90
14170;DHT22;63889;50.596;8.690;2023-04-24T03:17:35;11.30;99.90
14170;DHT22;63889;50.596;8.690;2023-04-24T03:20:01;11.20;99.90
14170;DHT22;63889;50.596;8.690;2023-04-24T03:22:26;11.10;99.90
14170;DHT22;63889;50.596;8.690;2023-04-24T03:24:52;11.00;99.90
14170;DHT22;63889;50.596;8.690;2023-04-24T03:27:17;11.00;99.90
14170;DHT22;63889;50.596;8.690;2023-04-24T03:29:43;11.00;99.90
14170;DHT22;63889;50.596;8.690;2023-04-24T03:32:08;10.90;99.90
14170;DHT22;63889;50.596;8.690;2023-04-24T03:34:34;10.90;99.90
14170;DHT22;63889;50.596;8.690;2023-04-24T03:37:00;10.80;99.90
14170;DHT22;63889;50.596;8.690;2023-04-24T03:39:25;10.80;99.90
14170;DHT22;63889;50.596;8.690;2023-04-24T03:41:51;10.80;99.90
14170;DHT22;63889;50.596;8.690;2023-04-24T03:44:16;10.80;99.90
14170;DHT22;63889;50.596;8.690;2023-04-24T03:46:42;10.80;99.90
14170;DHT22;63889;50.596;8.690;2023-04-24T03:49:08;10.80;99.90
14170;DHT22;63889;50.596;8.690;2023-04-24T03:51:33;10.80;99.90
14170;DHT22;63889;50.596;8.690;2023-04-24T03:53:59;10.80;99.90
14170;DHT22;63889;50.596;8.690;2023-04-24T03:56:24;10.80;99.90
14170;DHT22;63889;50.596;8.690;2023-04-24T03:58:50;10.70;99.90
14170;DHT22;63889;50.596;8.690;2023-04-24T04:01:15;10.70;99.90
14170;DHT22;63889;50.596;8.690;2023-04-24T04:03:41;10.80;99.90
14170;DHT22;63889;50.596;8.690;2023-04-24T04:06:07;10.80;99.90
14170;DHT22;63889;50.596;8.690;2023-04-24T04:08:32;10.70;99.90
14170;DHT22;63889;50.596;8.690;2023-04-24T04:10:58;10.70;99.90
14170;DHT22;63889;50.596;8.690;2023-04-24T04:13:23;10.70;99.90
14170;DHT22;63889;50.596;8.690;2023-04-24T04:15:49;10.60;99.90
14170;DHT22;63889;50.596;8.690;2023-04-24T04:18:15;10.60;99.90
14170;DHT22;63889;50.596;8.690;2023-04-24T04:20:40;10.50;99.90
14170;DHT22;63889;50.596;8.690;2023-04-24T04:23:06;10.50;99.90
14170;DHT22;63889;50.596;8.690;2023-04-24T04:25:31;10.40;99.90
14170;DHT22;63889;50.596;8.690;2023-04-24T04:27:57;10.40;99.90
14170;DHT22;63889;50.596;8.690;2023-04-24T04:30:24;10.40;99.90
14170;DHT22;63889;50.596;8.690;2023-04-24T04:32:51;10.40;99.90
14170;DHT22;63889;50.596;8.690;2023-04-24T04:35:16;10.50;99.90
14170;DHT22;63889;50.596;8.690;2023-04-24T04:37:42;10.50;99.90
14170;DHT22;63889;50.596;8.690;2023-04-24T04:40:08;10.50;99.90
14170;DHT22;63889;50.596;8.690;2023-04-24T04:42:36;10.50;99.90
14170;DHT22;63889;50.596;8.690;2023-04-24T04:45:08;10.50;99.90
14170;DHT22;63889;50.596;8.690;2023-04-24T04:47:34;10.50;99.90
14170;DHT22;63889;50.596;8.690;2023-04-24T04:50:00;10.40;99.90
14170;DHT22;63889;50.596;8.690;2023-04-24T04:52:26;10.40;99.90
14170;DHT22;63889;50.596;8.690;2023-04-24T04:54:52;10.40;99.90
14170;DHT22;63889;50.596;8.690;2023-04-24T04:57:17;10.40;99.90
14170;DHT22;63889;50.596;8.690;2023-04-24T04:59:43;10.40;99.90
14170;DHT22;63889;50.596;8.690;2023-04-24T05:02:08;10.40;99.90
14170;DHT22;63889;50.596;8.690;2023-04-24T05:04:34;10.40;99.90
14170;DHT22;63889;50.596;8.690;2023-04-24T05:07:00;10.40;99.90
14170;DHT22;63889;50.596;8.690;2023-04-24T05:09:25;10.40;99.90
14170;DHT22;63889;50.596;8.690;2023-04-24T05:11:53;10.40;99.90
14170;DHT22;63889;50.596;8.690;2023-04-24T05:14:18;10.30;99.90
14170;DHT22;63889;50.596;8.690;2023-04-24T05:16:44;10.20;99.90
14170;DHT22;63889;50.596;8.690;2023-04-24T05:19:10;10.10;99.90
14170;DHT22;63889;50.596;8.690;2023-04-24T05:21:37;10.10;99.90
14170;DHT22;63889;50.596;8.690;2023-04-24T05:24:02;10.10;99.90
14170;DHT22;63889;50.596;8.690;2023-04-24T05:26:28;10.10;99.90
14170;DHT22;63889;50.596;8.690;2023-04-24T05:28:53;10.00;99.90
14170;DHT22;63889;50.596;8.690;2023-04-24T05:31:19;10.00;99.90
14170;DHT22;63889;50.596;8.690;2023-04-24T05:33:45;10.00;99.90
14170;DHT22;63889;50.596;8.690;2023-04-24T05:36:10;10.00;99.90
14170;DHT22;63889;50.596;8.690;2023-04-24T05:38:36;10.00;99.90
14170;DHT22;63889;50.596;8.690;2023-04-24T05:41:01;10.00;99.90
14170;DHT22;63889;50.596;8.690;2023-04-24T05:43:27;10.00;99.90
14170;DHT22;63889;50.596;8.690;2023-04-24T05:45:52;10.00;99.90
14170;DHT22;63889;50.596;8.690;2023-04-24T05:48:19;10.10;99.90
14170;DHT22;63889;50.596;8.690;2023-04-24T05:50:45;10.10;99.90
14170;DHT22;63889;50.596;8.690;2023-04-24T05:53:10;10.20;99.90
14170;DHT22;63889;50.596;8.690;2023-04-24T05:55:36;10.20;99.90
14170;DHT22;63889;50.596;8.690;2023-04-24T05:58:02;10.20;99.90
14170;DHT22;63889;50.596;8.690;2023-04-24T06:00:27;10.20;99.90
14170;DHT22;63889;50.596;8.690;2023-04-24T06:02:54;10.20;99.90
14170;DHT22;63889;50.596;8.690;2023-04-24T06:05:19;10.30;99.90
14170;DHT22;63889;50.596;8.690;2023-04-24T06:07:45;10.30;99.90
14170;DHT22;63889;50.596;8.690;2023-04-24T06:10:11;10.40;99.90
14170;DHT22;63889;50.596;8.690;2023-04-24T06:12:36;10.40;99.90
14170;DHT22;63889;50.596;8.690;2023-04-24T06:15:03;10.30;99.90
14170;DHT22;63889;50.596;8.690;2023-04-24T06:17:29;10.30;99.90
14170;DHT22;63889;50.596;8.690;2023-04-24T06:19:54;10.20;99.90
14170;DHT22;63889;50.596;8.690;2023-04-24T06:22:20;10.30;99.90
14170;DHT22;63889;50.596;8.690;2023-04-24T06:24:45;10.30;99.90
14170;DHT22;63889;50.596;8.690;2023-04-24T06:27:12;10.30;99.90
14170;DHT22;63889;50.596;8.690;2023-04-24T06:29:38;10.30;99.90
14170;DHT22;63889;50.596;8.690;2023-04-24T06:32:03;10.30;99.90
14170;DHT22;63889;50.596;8.690;2023-04-24T06:34:29;10.30;99.90
14170;DHT22;63889;50.596;8.690;2023-04-24T06:36:56;10.30;99.90
14170;DHT22;63889;50.596;8.690;2023-04-24T06:39:21;10.30;99.90
14170;DHT22;63889;50.596;8.690;2023-04-24T06:41:47;10.30;99.90
14170;DHT22;63889;50.596;8.690;2023-04-24T06:44:12;10.20;99.90
14170;DHT22;63889;50.596;8.690;2023-04-24T06:46:40;10.20;99.90
14170;DHT22;63889;50.596;8.690;2023-04-24T06:49:06;10.30;99.90
14170;DHT22;63889;50.596;8.690;2023-04-24T06:51:31;10.50;99.90
14170;DHT22;63889;50.596;8.690;2023-04-24T06:53:58;10.60;99.90
14170;DHT22;63889;50.596;8.690;2023-04-24T06:56:24;10.60;99.90
14170;DHT22;63889;50.596;8.690;2023-04-24T06:58:51;10.60;99.90
14170;DHT22;63889;50.596;8.690;2023-04-24T07:01:17;10.70;99.90
14170;DHT22;63889;50.596;8.690;2023-04-24T07:03:42;10.60;99.90
14170;DHT22;63889;50.596;8.690;2023-04-24T07:06:09;10.70;99.90
14170;DHT22;63889;50.596;8.690;2023-04-24T07:08:36;10.70;99.90
14170;DHT22;63889;50.596;8.690;2023-04-24T07:11:02;10.70;99.90
14170;DHT22;63889;50.596;8.690;2023-04-24T07:13:28;10.80;99.90
14170;DHT22;63889;50.596;8.690;2023-04-24T07:15:54;10.90;99.90
14170;DHT22;63889;50.596;8.690;2023-04-24T07:18:21;10.90;99.90
14170;DHT22;63889;50.596;8.690;2023-04-24T07:20:47;11.00;99.90
14170;DHT22;63889;50.596;8.690;2023-04-24T07:23:12;11.10;99.90
14170;DHT22;63889;50.596;8.690;2023-04-24T07:25:38;11.20;99.90
14170;DHT22;63889;50.596;8.690;2023-04-24T07:28:04;11.20;99.90
14170;DHT22;63889;50.596;8.690;2023-04-24T07:30:31;11.20;99.90
14170;DHT22;63889;50.596;8.690;2023-04-24T07:32:58;11.30;99.90
14170;DHT22;63889;50.596;8.690;2023-04-24T07:35:24;11.30;99.90
14170;DHT22;63889;50.596;8.690;2023-04-24T07:37:53;11.40;99.90
14170;DHT22;63889;50.596;8.690;2023-04-24T07:40:20;11.40;99.90
14170;DHT22;63889;50.596;8.690;2023-04-24T07:42:45;11.50;99.90
14170;DHT22;63889;50.596;8.690;2023-04-24T07:45:13;11.50;99.90
14170;DHT22;63889;50.596;8.690;2023-04-24T07:47:40;11.50;99.90
14170;DHT22;63889;50.596;8.690;2023-04-24T07:50:08;11.50;99.90
14170;DHT22;63889;50.596;8.690;2023-04-24T07:52:34;11.60;99.90
14170;DHT22;63889;50.596;8.690;2023-04-24T07:55:00;11.50;99.90
14170;DHT22;63889;50.596;8.690;2023-04-24T07:57:27;11.50;99.90
14170;DHT22;63889;50.596;8.690;2023-04-24T07:59:52;11.50;99.90
14170;DHT22;63889;50.596;8.690;2023-04-24T08:02:18;11.50;99.90
14170;DHT22;63889;50.596;8.690;2023-04-24T08:04:44;11.60;99.90
14170;DHT22;63889;50.596;8.690;2023-04-24T08:07:09;11.70;99.90
14170;DHT22;63889;50.596;8.690;2023-04-24T08:09:35;11.80;99.90
14170;DHT22;63889;50.596;8.690;2023-04-24T08:12:00;12.00;99.90
14170;DHT22;63889;50.596;8.690;2023-04-24T08:14:27;12.00;99.90
14170;DHT22;63889;50.596;8.690;2023-04-24T08:16:56;12.20;99.90
14170;DHT22;63889;50.596;8.690;2023-04-24T08:19:21;12.30;99.90
14170;DHT22;63889;50.596;8.690;2023-04-24T08:21:47;12.20;99.90
14170;DHT22;63889;50.596;8.690;2023-04-24T08:24:13;12.20;99.90
14170;DHT22;63889;50.596;8.690;2023-04-24T08:26:38;12.20;99.90
14170;DHT22;63889;50.596;8.690;2023-04-24T08:29:04;12.10;99.90
14170;DHT22;63889;50.596;8.690;2023-04-24T08:31:31;12.00;99.90
14170;DHT22;63889;50.596;8.690;2023-04-24T08:33:57;12.10;99.90
14170;DHT22;63889;50.596;8.690;2023-04-24T08:36:23;12.10;99.90
14170;DHT22;63889;50.596;8.690;2023-04-24T08:38:49;12.10;99.90
14170;DHT22;63889;50.596;8.690;2023-04-24T08:41:15;12.10;99.90
14170;DHT22;63889;50.596;8.690;2023-04-24T08:43:43;12.10;99.90
14170;DHT22;63889;50.596;8.690;2023-04-24T08:46:10;12.10;99.90
14170;DHT22;63889;50.596;8.690;2023-04-24T08:48:36;12.00;99.90
14170;DHT22;63889;50.596;8.690;2023-04-24T08:51:07;11.90;99.90
14170;DHT22;63889;50.596;8.690;2023-04-24T08:53:33;11.90;99.90
14170;DHT22;63889;50.596;8.690;2023-04-24T08:56:01;11.80;99.90
14170;DHT22;63889;50.596;8.690;2023-04-24T08:58:27;11.80;99.90
14170;DHT22;63889;50.596;8.690;2023-04-24T09:00:57;11.70;99.90
14170;DHT22;63889;50.596;8.690;2023-04-24T09:03:23;11.70;99.90
14170;DHT22;63889;50.596;8.690;2023-04-24T09:05:49;11.70;99.90
14170;DHT22;63889;50.596;8.690;2023-04-24T09:08:18;11.70;99.90
14170;DHT22;63889;50.596;8.690;2023-04-24T09:10:44;11.70;99.90
14170;DHT22;63889;50.596;8.690;2023-04-24T09:13:10;11.60;99.90
14170;DHT22;63889;50.596;8.690;2023-04-24T09:15:37;11.60;99.90
14170;DHT22;63889;50.596;8.690;2023-04-24T09:18:04;11.60;99.90
14170;DHT22;63889;50.596;8.690;2023-04-24T09:20:29;11.60;99.90
14170;DHT22;63889;50.596;8.690;2023-04-24T09:22:57;11.70;99.90
14170;DHT22;63889;50.596;8.690;2023-04-24T09:25:33;11.50;99.90
14170;DHT22;63889;50.596;8.690;2023-04-24T09:28:03;11.60;99.90
14170;DHT22;63889;50.596;8.690;2023-04-24T09:30:29;11.70;99.90
14170;DHT22;63889;50.596;8.690;2023-04-24T09:33:12;11.80;99.90
14170;DHT22;63889;50.596;8.690;2023-04-24T09:35:41;11.80;99.90
14170;DHT22;63889;50.596;8.690;2023-04-24T09:38:07;11.80;99.90
14170;DHT22;63889;50.596;8.690;2023-04-24T09:40:34;11.70;99.90
14170;DHT22;63889;50.596;8.690;2023-04-24T09:42:59;11.70;99.90
14170;DHT22;63889;50.596;8.690;2023-04-24T09:45:31;11.80;99.90
14170;DHT22;63889;50.596;8.690;2023-04-24T09:48:00;11.80;99.90
14170;DHT22;63889;50.596;8.690;2023-04-24T09:50:26;11.80;99.90
14170;DHT22;63889;50.596;8.690;2023-04-24T09:52:58;11.90;99.90
14170;DHT22;63889;50.596;8.690;2023-04-24T09:55:24;11.80;99.90
14170;DHT22;63889;50.596;8.690;2023-04-24T09:57:52;11.80;99.90
14170;DHT22;63889;50.596;8.690;2023-04-24T10:00:21;11.60;99.90
14170;DHT22;63889;50.596;8.690;2023-04-24T10:02:55;11.30;99.90
14170;DHT22;63889;50.596;8.690;2023-04-24T10:05:24;11.20;99.90
14170;DHT22;63889;50.596;8.690;2023-04-24T10:07:50;11.20;99.90
14170;DHT22;63889;50.596;8.690;2023-04-24T10:10:16;11.20;99.90
14170;DHT22;63889;50.596;8.690;2023-04-24T10:12:42;11.20;99.90
14170;DHT22;63889;50.596;8.690;2023-04-24T10:15:10;11.20;99.90
14170;DHT22;63889;50.596;8.690;2023-04-24T10:17:38;11.20;99.90
14170;DHT22;63889;50.596;8.690;2023-04-24T10:20:05;11.20;99.90
14170;DHT22;63889;50.596;8.690;2023-04-24T10:22:32;11.20;99.90
14170;DHT22;63889;50.596;8.690;2023-04-24T10:24:58;11.10;99.90
14170;DHT22;63889;50.596;8.690;2023-04-24T10:27:25;11.10;99.90
14170;DHT22;63889;50.596;8.690;2023-04-24T10:29:53;11.10;99.90
14170;DHT22;63889;50.596;8.690;2023-04-24T10:32:18;11.10;99.90
14170;DHT22;63889;50.596;8.690;2023-04-24T10:34:44;11.20;99.90
14170;DHT22;63889;50.596;8.690;2023-04-24T10:37:10;11.20;99.90
14170;DHT22;63889;50.596;8.690;2023-04-24T10:39:36;11.30;99.90
14170;DHT22;63889;50.596;8.690;2023-04-24T10:42:14;11.40;99.90
14170;DHT22;63889;50.596;8.690;2023-04-24T10:44:40;11.40;99.90
14170;DHT22;63889;50.596;8.690;2023-04-24T10:47:12;11.40;99.90
14170;DHT22;63889;50.596;8.690;2023-04-24T10:49:39;11.40;99.90
14170;DHT22;63889;50.596;8.690;2023-04-24T10:52:05;11.50;99.90
14170;DHT22;63889;50.596;8.690;2023-04-24T10:54:44;11.50;99.90
14170;DHT22;63889;50.596;8.690;2023-04-24T10:59:46;11.40;99.90
14170;DHT22;63889;50.596;8.690;2023-04-24T11:02:16;11.30;99.90
14170;DHT22;63889;50.596;8.690;2023-04-24T11:04:43;11.30;99.90
14170;DHT22;63889;50.596;8.690;2023-04-24T11:07:09;11.30;99.90
14170;DHT22;63889;50.596;8.690;2023-04-24T11:09:36;11.30;99.90
14170;DHT22;63889;50.596;8.690;2023-04-24T11:12:11;11.30;99.90
14170;DHT22;63889;50.596;8.690;2023-04-24T11:17:37;11.20;99.90
14170;DHT22;63889;50.596;8.690;2023-04-24T11:20:11;11.30;99.90
14170;DHT22;63889;50.596;8.690;2023-04-24T11:22:38;11.40;99.90
14170;DHT22;63889;50.596;8.690;2023-04-24T11:25:08;11.50;99.90
14170;DHT22;63889;50.596;8.690;2023-04-24T11:27:44;11.60;99.90
14170;DHT22;63889;50.596;8.690;2023-04-24T11:30:11;11.70;99.90
14170;DHT22;63889;50.596;8.690;2023-04-24T11:32:39;11.80;99.90
14170;DHT22;63889;50.596;8.690;2023-04-24T11:37:44;11.80;99.90
14170;DHT22;63889;50.596;8.690;2023-04-24T11:40:12;11.80;99.90
14170;DHT22;63889;50.596;8.690;2023-04-24T11:42:43;11.80;99.90
14170;DHT22;63889;50.596;8.690;2023-04-24T11:45:23;11.80;99.90
14170;DHT22;63889;50.596;8.690;2023-04-24T11:47:49;11.90;99.90
14170;DHT22;63889;50.596;8.690;2023-04-24T11:50:17;12.00;99.90
14170;DHT22;63889;50.596;8.690;2023-04-24T11:52:44;12.00;99.90
14170;DHT22;63889;50.596;8.690;2023-04-24T11:57:56;12.20;99.90
14170;DHT22;63889;50.596;8.690;2023-04-24T12:00:27;12.30;99.90
14170;DHT22;63889;50.596;8.690;2023-04-24T12:03:04;12.20;99.90
14170;DHT22;63889;50.596;8.690;2023-04-24T12:05:30;12.10;99.90
14170;DHT22;63889;50.596;8.690;2023-04-24T12:07:56;12.10;99.90
14170;DHT22;63889;50.596;8.690;2023-04-24T12:10:23;12.00;99.90
14170;DHT22;63889;50.596;8.690;2023-04-24T12:12:50;11.90;99.90
14170;DHT22;63889;50.596;8.690;2023-04-24T12:15:17;11.70;99.90
14170;DHT22;63889;50.596;8.690;2023-04-24T12:17:43;11.60;99.90
14170;DHT22;63889;50.596;8.690;2023-04-24T12:20:09;11.50;99.90
14170;DHT22;63889;50.596;8.690;2023-04-24T12:22:51;11.50;99.90
14170;DHT22;63889;50.596;8.690;2023-04-24T12:25:21;11.50;99.90
14170;DHT22;63889;50.596;8.690;2023-04-24T12:27:53;11.50;99.90
14170;DHT22;63889;50.596;8.690;2023-04-24T12:30:19;11.60;99.90
14170;DHT22;63889;50.596;8.690;2023-04-24T12:32:47;11.70;99.90
14170;DHT22;63889;50.596;8.690;2023-04-24T12:35:13;11.80;99.90
14170;DHT22;63889;50.596;8.690;2023-04-24T12:37:42;12.00;99.90
14170;DHT22;63889;50.596;8.690;2023-04-24T12:40:10;12.00;99.90
14170;DHT22;63889;50.596;8.690;2023-04-24T12:42:41;12.20;99.90
14170;DHT22;63889;50.596;8.690;2023-04-24T12:45:07;12.20;99.90
14170;DHT22;63889;50.596;8.690;2023-04-24T12:47:34;12.20;99.90
14170;DHT22;63889;50.596;8.690;2023-04-24T12:50:00;12.10;99.90
14170;DHT22;63889;50.596;8.690;2023-04-24T12:52:27;12.10;99.90
14170;DHT22;63889;50.596;8.690;2023-04-24T12:54:56;12.00;99.90
14170;DHT22;63889;50.596;8.690;2023-04-24T12:57:23;12.00;99.90
14170;DHT22;63889;50.596;8.690;2023-04-24T12:59:49;12.00;99.90
14170;DHT22;63889;50.596;8.690;2023-04-24T13:02:14;12.20;99.90
14170;DHT22;63889;50.596;8.690;2023-04-24T13:04:44;12.20;99.90
14170;DHT22;63889;50.596;8.690;2023-04-24T13:07:11;12.30;99.90
14170;DHT22;63889;50.596;8.690;2023-04-24T13:09:37;12.40;99.90
14170;DHT22;63889;50.596;8.690;2023-04-24T13:12:03;12.50;99.90
14170;DHT22;63889;50.596;8.690;2023-04-24T13:14:31;12.50;99.90
14170;DHT22;63889;50.596;8.690;2023-04-24T13:16:56;12.50;99.90
14170;DHT22;63889;50.596;8.690;2023-04-24T13:19:24;12.40;99.90
14170;DHT22;63889;50.596;8.690;2023-04-24T13:21:51;12.50;99.90
14170;DHT22;63889;50.596;8.690;2023-04-24T13:24:17;12.40;99.90
14170;DHT22;63889;50.596;8.690;2023-04-24T13:26:43;12.50;99.90
14170;DHT22;63889;50.596;8.690;2023-04-24T13:29:08;12.60;99.90
14170;DHT22;63889;50.596;8.690;2023-04-24T13:31:34;12.70;99.90
14170;DHT22;63889;50.596;8.690;2023-04-24T13:34:00;12.60;99.90
14170;DHT22;63889;50.596;8.690;2023-04-24T13:36:26;12.50;99.90
14170;DHT22;63889;50.596;8.690;2023-04-24T13:38:53;12.60;99.90
14170;DHT22;63889;50.596;8.690;2023-04-24T13:41:18;12.60;99.90
14170;DHT22;63889;50.596;8.690;2023-04-24T13:43:44;12.60;99.90
14170;DHT22;63889;50.596;8.690;2023-04-24T13:46:09;12.70;99.90
14170;DHT22;63889;50.596;8.690;2023-04-24T13:48:35;12.80;99.90
14170;DHT22;63889;50.596;8.690;2023-04-24T13:51:01;12.70;99.90
14170;DHT22;63889;50.596;8.690;2023-04-24T13:53:26;12.70;99.90
14170;DHT22;63889;50.596;8.690;2023-04-24T13:55:52;12.80;99.90
14170;DHT22;63889;50.596;8.690;2023-04-24T13:58:17;12.90;99.90
14170;DHT22;63889;50.596;8.690;2023-04-24T14:00:43;12.70;99.90
14170;DHT22;63889;50.596;8.690;2023-04-24T14:03:08;12.70;99.90
14170;DHT22;63889;50.596;8.690;2023-04-24T14:05:34;12.60;99.90
14170;DHT22;63889;50.596;8.690;2023-04-24T14:07:59;12.60;99.90
14170;DHT22;63889;50.596;8.690;2023-04-24T14:10:25;12.50;99.90
14170;DHT22;63889;50.596;8.690;2023-04-24T14:12:52;12.50;99.90
14170;DHT22;63889;50.596;8.690;2023-04-24T14:15:18;12.50;99.90
14170;DHT22;63889;50.596;8.690;2023-04-24T14:17:44;12.80;99.90
14170;DHT22;63889;50.596;8.690;2023-04-24T14:20:10;12.80;99.90
14170;DHT22;63889;50.596;8.690;2023-04-24T14:22:35;13.00;99.90
14170;DHT22;63889;50.596;8.690;2023-04-24T14:25:01;13.20;99.90
14170;DHT22;63889;50.596;8.690;2023-04-24T14:27:27;13.40;99.90
14170;DHT22;63889;50.596;8.690;2023-04-24T14:29:52;13.70;99.90
14170;DHT22;63889;50.596;8.690;2023-04-24T14:32:18;13.70;99.90
14170;DHT22;63889;50.596;8.690;2023-04-24T14:34:44;13.90;99.90
14170;DHT22;63889;50.596;8.690;2023-04-24T14:37:09;14.00;99.90
14170;DHT22;63889;50.596;8.690;2023-04-24T14:39:36;14.20;99.90
14170;DHT22;63889;50.596;8.690;2023-04-24T14:42:01;14.40;99.90
14170;DHT22;63889;50.596;8.690;2023-04-24T14:44:27;14.50;99.90
14170;DHT22;63889;50.596;8.690;2023-04-24T14:46:52;14.60;99.90
14170;DHT22;63889;50.596;8.690;2023-04-24T14:49:18;14.50;99.90
14170;DHT22;63889;50.596;8.690;2023-04-24T14:51:44;14.40;99.90
14170;DHT22;63889;50.596;8.690;2023-04-24T14:54:09;14.40;99.90
14170;DHT22;63889;50.596;8.690;2023-04-24T14:56:35;14.30;99.90
14170;DHT22;63889;50.596;8.690;2023-04-24T14:59:01;14.20;99.90
14170;DHT22;63889;50.596;8.690;2023-04-24T15:01:27;14.10;99.90
14170;DHT22;63889;50.596;8.690;2023-04-24T15:03:52;14.10;99.90
14170;DHT22;63889;50.596;8.690;2023-04-24T15:06:18;14.10;99.90
14170;DHT22;63889;50.596;8.690;2023-04-24T15:08:43;14.00;99.90
14170;DHT22;63889;50.596;8.690;2023-04-24T15:11:10;13.90;99.90
14170;DHT22;63889;50.596;8.690;2023-04-24T15:13:36;13.70;99.90
14170;DHT22;63889;50.596;8.690;2023-04-24T15:16:01;13.60;99.90
14170;DHT22;63889;50.596;8.690;2023-04-24T15:18:27;13.50;99.90
14170;DHT22;63889;50.596;8.690;2023-04-24T15:20:54;13.40;99.90
14170;DHT22;63889;50.596;8.690;2023-04-24T15:23:20;13.10;99.90
14170;DHT22;63889;50.596;8.690;2023-04-24T15:25:46;12.90;99.90
14170;DHT22;63889;50.596;8.690;2023-04-24T15:28:11;12.80;99.90
14170;DHT22;63889;50.596;8.690;2023-04-24T15:30:37;12.70;99.90
14170;DHT22;63889;50.596;8.690;2023-04-24T15:33:03;12.70;99.90
14170;DHT22;63889;50.596;8.690;2023-04-24T15:35:29;12.70;99.90